Time;durP1;ratioP1;P1;durP2;ratioP2;P2;SDS_P1;SDS_P2;PMS_P1;PMS_P2;Temp;Humidity;BMP_temperature;BMP_pressure;BME280_temperature;BME280_humidity;BME280_pressure;Samples;Min_cycle;Max_cycle;Signal;HPM_P1;HPM_P2
2023/08/19 00:01:52;;;;;;;55.78;37.65;;;21.20;99.90;;;;;;5076720;28;20162;-79
2023/08/19 00:04:18;;;;;;;50.17;34.22;;;;;;;;;;5078874;28;20063;-79
2023/08/19 00:06:44;;;;;;;56.92;37.20;;;20.10;99.90;;;;;;5078859;28;20381;-78
2023/08/19 00:09:11;;;;;;;51.67;35.90;;;21.00;99.90;;;;;;5077731;28;20046;-78
2023/08/19 00:11:38;;;;;;;57.00;38.40;;;21.60;99.90;;;;;;5065778;28;20063;-79
2023/08/19 00:14:05;;;;;;;61.33;38.88;;;19.70;99.90;;;;;;5083245;28;20134;-79
2023/08/19 00:16:32;;;;;;;59.85;37.95;;;21.70;99.90;;;;;;5086376;28;20040;-79
2023/08/19 00:18:57;;;;;;;55.97;36.78;;;19.90;99.90;;;;;;5093002;28;20036;-79
2023/08/19 00:21:24;;;;;;;56.28;37.63;;;;;;;;;;5045029;28;20042;-79
2023/08/19 00:23:50;;;;;;;55.28;37.15;;;;;;;;;;5075389;28;20036;-79
2023/08/19 00:26:16;;;;;;;57.63;36.53;;;20.80;99.90;;;;;;5085211;28;20043;-79
2023/08/19 00:28:42;;;;;;;56.70;37.60;;;;;;;;;;5047280;28;21173;-79
2023/08/19 00:31:09;;;;;;;57.33;36.60;;;;;;;;;;5090620;28;20491;-73
2023/08/19 00:33:36;;;;;;;60.30;38.25;;;21.50;99.90;;;;;;5076797;28;20035;-73
2023/08/19 00:36:04;;;;;;;56.58;34.33;;;20.90;99.90;;;;;;5072049;28;20039;-73
2023/08/19 00:38:29;;;;;;;57.25;37.05;;;21.10;99.90;;;;;;5076154;28;20456;-73
2023/08/19 00:40:55;;;;;;;61.75;38.85;;;20.70;99.90;;;;;;5084726;28;20112;-73
2023/08/19 00:43:21;;;;;;;55.95;38.25;;;21.50;99.90;;;;;;5075142;28;20071;-73
2023/08/19 00:45:49;;;;;;;54.67;36.58;;;21.70;99.90;;;;;;5088367;28;20059;-73
2023/08/19 00:48:17;;;;;;;55.63;37.33;;;21.60;99.90;;;;;;5074206;28;20044;-73
2023/08/19 00:50:44;;;;;;;65.75;38.60;;;20.70;99.90;;;;;;5085553;28;20052;-73
2023/08/19 00:53:12;;;;;;;58.42;38.50;;;21.10;99.90;;;;;;5061207;28;20059;-78
2023/08/19 00:55:37;;;;;;;59.55;37.67;;;20.40;99.90;;;;;;5080714;28;20096;-79
2023/08/19 00:58:03;;;;;;;54.53;37.03;;;21.60;99.90;;;;;;5078400;28;20047;-79
2023/08/19 01:00:31;;;;;;;63.50;38.22;;;20.00;99.90;;;;;;5076764;28;20035;-79
2023/08/19 01:02:57;;;;;;;55.92;36.55;;;20.70;99.90;;;;;;5080429;28;20584;-79
2023/08/19 01:05:45;;;;;;;56.92;37.50;;;20.60;99.90;;;;;;5068069;28;20035;-79
2023/08/19 01:08:16;;;;;;;54.35;37.35;;;20.60;99.90;;;;;;5094752;28;20046;-79
2023/08/19 01:10:56;;;;;;;55.55;36.75;;;20.60;99.90;;;;;;5076322;28;20041;-78
2023/08/19 01:13:30;;;;;;;56.38;37.90;;;20.60;99.90;;;;;;5091726;28;20035;-79
2023/08/19 01:16:06;;;;;;;57.42;37.85;;;19.40;99.90;;;;;;5091857;28;20040;-78
2023/08/19 01:18:33;;;;;;;54.80;36.90;;;20.40;99.90;;;;;;5076838;28;20090;-78
2023/08/19 01:20:59;;;;;;;55.40;36.42;;;;;;;;;;5091964;28;20400;-78
2023/08/19 01:23:42;;;;;;;55.38;38.40;;;20.50;99.90;;;;;;5081657;28;20435;-79
2023/08/19 01:26:07;;;;;;;57.75;37.53;;;20.40;99.90;;;;;;5075633;28;20036;-78
2023/08/19 01:28:33;;;;;;;59.85;39.03;;;19.40;99.90;;;;;;5062174;28;20039;-78
2023/08/19 01:31:00;;;;;;;57.25;37.47;;;21.10;99.90;;;;;;5080307;28;20035;-79
2023/08/19 01:33:25;;;;;;;52.15;36.17;;;20.60;99.90;;;;;;5087883;28;20401;-78
2023/08/19 01:36:05;;;;;;;58.42;37.38;;;19.20;99.90;;;;;;5093533;28;20101;-78
2023/08/19 01:38:57;;;;;;;52.80;35.38;;;20.30;99.90;;;;;;5093498;28;20040;-78
2023/08/19 01:41:26;;;;;;;54.05;36.67;;;19.90;99.90;;;;;;5091556;28;20434;-78
2023/08/19 01:43:52;;;;;;;53.05;37.08;;;20.80;99.90;;;;;;5093373;28;20032;-78
2023/08/19 01:46:18;;;;;;;54.92;37.47;;;20.80;99.90;;;;;;5094096;28;20242;-78
2023/08/19 01:48:45;;;;;;;53.88;35.78;;;20.30;99.90;;;;;;5078079;28;20058;-79
2023/08/19 01:51:11;;;;;;;55.10;37.33;;;;;;;;;;5081155;28;20499;-78
2023/08/19 01:53:38;;;;;;;56.03;37.95;;;20.80;99.90;;;;;;5082028;28;20467;-78
2023/08/19 01:56:04;;;;;;;61.85;38.85;;;19.20;99.90;;;;;;5060787;28;20045;-78
2023/08/19 01:58:30;;;;;;;59.78;39.78;;;;;;;;;;5094718;28;20502;-79
2023/08/19 02:00:56;;;;;;;57.28;38.40;;;20.70;99.90;;;;;;5088097;28;20101;-79
2023/08/19 02:03:22;;;;;;;54.65;36.13;;;21.00;99.90;;;;;;5093764;28;20035;-78
2023/08/19 02:05:48;;;;;;;57.20;37.28;;;21.30;99.90;;;;;;5081749;28;20524;-78
2023/08/19 02:08:13;;;;;;;60.30;38.45;;;20.20;99.90;;;;;;5060406;28;20028;-78
2023/08/19 02:10:41;;;;;;;57.65;36.20;;;21.10;99.90;;;;;;5076378;28;20079;-78
2023/08/19 02:13:07;;;;;;;56.17;38.00;;;20.40;99.90;;;;;;5079768;28;20047;-79
2023/08/19 02:15:33;;;;;;;62.03;37.35;;;21.30;99.90;;;;;;5081418;28;20118;-78
2023/08/19 02:17:59;;;;;;;56.72;36.53;;;;;;;;;;5080093;28;20044;-78
2023/08/19 02:20:24;;;;;;;58.92;39.80;;;21.20;99.90;;;;;;5068958;28;20031;-79
2023/08/19 02:22:51;;;;;;;53.60;35.13;;;20.20;99.90;;;;;;5069355;28;20400;-78
2023/08/19 02:25:16;;;;;;;55.97;36.20;;;20.80;99.90;;;;;;5078905;28;20032;-78
2023/08/19 02:27:43;;;;;;;56.90;39.13;;;20.20;99.90;;;;;;5076842;28;20043;-78
2023/08/19 02:30:10;;;;;;;59.78;37.90;;;20.90;99.90;;;;;;5066728;28;20039;-79
2023/08/19 02:32:38;;;;;;;53.38;36.50;;;21.00;99.90;;;;;;5063874;28;20322;-78
2023/08/19 02:35:04;;;;;;;52.60;36.70;;;;;;;;;;5084891;28;20047;-78
2023/08/19 02:37:30;;;;;;;56.45;36.15;;;;;;;;;;5075234;28;20040;-78
2023/08/19 02:39:56;;;;;;;58.60;37.97;;;;;;;;;;5060972;28;20529;-79
2023/08/19 02:42:22;;;;;;;53.83;36.47;;;21.00;99.90;;;;;;5079032;28;20036;-78
2023/08/19 02:44:48;;;;;;;56.10;37.33;;;;;;;;;;5070783;28;20399;-78
2023/08/19 02:47:14;;;;;;;59.15;36.78;;;;;;;;;;5088869;28;20065;-78
2023/08/19 02:49:39;;;;;;;52.97;35.25;;;20.70;99.90;;;;;;5091705;28;20053;-78
2023/08/19 02:52:06;;;;;;;53.20;36.15;;;20.30;99.90;;;;;;5080622;28;20031;-78
2023/08/19 02:54:31;;;;;;;56.22;37.15;;;20.90;99.90;;;;;;5092664;28;20042;-78
2023/08/19 02:56:58;;;;;;;62.80;39.35;;;;;;;;;;5083719;28;20036;-78
2023/08/19 02:59:23;;;;;;;56.65;37.00;;;21.00;99.90;;;;;;5085254;28;20045;-79
2023/08/19 03:01:49;;;;;;;62.38;38.75;;;20.10;99.90;;;;;;5077423;28;20040;-79
2023/08/19 03:04:15;;;;;;;60.60;38.95;;;;;;;;;;5093633;28;20066;-79
2023/08/19 03:06:41;;;;;;;57.50;37.22;;;;;;;;;;5065389;28;20439;-79
2023/08/19 03:09:07;;;;;;;52.08;35.50;;;20.30;99.90;;;;;;5090729;28;20035;-78
2023/08/19 03:11:35;;;;;;;54.80;37.17;;;19.70;99.90;;;;;;5083266;28;20107;-78
2023/08/19 03:14:01;;;;;;;55.63;36.60;;;;;;;;;;5077020;28;20212;-79
2023/08/19 03:16:27;;;;;;;56.88;36.30;;;19.60;99.90;;;;;;5086450;28;20051;-79
2023/08/19 03:18:52;;;;;;;60.03;37.17;;;20.20;99.90;;;;;;5089683;28;20062;-78
2023/08/19 03:21:18;;;;;;;63.92;37.40;;;19.80;99.90;;;;;;5041701;28;20486;-79
2023/08/19 03:23:44;;;;;;;57.13;36.83;;;20.20;99.90;;;;;;5076053;28;21421;-78
2023/08/19 03:26:10;;;;;;;58.75;37.67;;;19.00;99.90;;;;;;5068955;28;20027;-79
2023/08/19 03:28:36;;;;;;;53.95;34.75;;;;;;;;;;5074378;28;20476;-79
2023/08/19 03:31:09;;;;;;;55.33;35.42;;;20.40;99.90;;;;;;5086761;28;20032;-78
2023/08/19 03:33:34;;;;;;;53.15;36.17;;;19.20;99.90;;;;;;5093134;28;20063;-79
2023/08/19 03:36:00;;;;;;;54.03;36.40;;;18.90;99.90;;;;;;5078895;28;20064;-78
2023/08/19 03:38:27;;;;;;;57.58;34.85;;;;;;;;;;5067864;28;20432;-79
2023/08/19 03:40:53;;;;;;;56.08;36.58;;;;;;;;;;5089381;28;20044;-79
2023/08/19 03:43:18;;;;;;;54.10;36.30;;;19.00;99.90;;;;;;5083746;28;20062;-79
2023/08/19 03:45:45;;;;;;;51.05;35.05;;;;;;;;;;5084655;28;20515;-78
2023/08/19 03:48:11;;;;;;;56.53;36.40;;;19.30;99.90;;;;;;5062794;28;20472;-78
2023/08/19 03:50:37;;;;;;;54.17;35.00;;;;;;;;;;5073068;28;20082;-75
2023/08/19 03:53:03;;;;;;;51.55;34.85;;;20.70;99.90;;;;;;5078790;28;20403;-79
2023/08/19 03:55:30;;;;;;;54.22;34.85;;;19.10;99.90;;;;;;5063879;28;20040;-73
2023/08/19 03:57:55;;;;;;;55.60;35.95;;;20.80;99.90;;;;;;5086199;28;20082;-78
2023/08/19 04:00:21;;;;;;;50.67;35.30;;;21.10;99.90;;;;;;5070947;28;20068;-78
2023/08/19 04:02:47;;;;;;;51.90;34.88;;;;;;;;;;5076999;28;20396;-78
2023/08/19 04:05:13;;;;;;;53.95;34.13;;;20.80;99.90;;;;;;5077664;28;20451;-79
2023/08/19 04:07:39;;;;;;;53.65;33.30;;;;;;;;;;5077936;28;20032;-79
2023/08/19 04:10:06;;;;;;;53.38;33.47;;;20.60;99.90;;;;;;5058290;28;20040;-79
2023/08/19 04:12:32;;;;;;;48.75;33.85;;;19.40;99.90;;;;;;5086816;28;20036;-78
2023/08/19 04:14:57;;;;;;;46.83;32.33;;;18.90;99.90;;;;;;5059845;28;20047;-78
2023/08/19 04:17:23;;;;;;;50.67;34.65;;;;;;;;;;5063399;28;20067;-73
2023/08/19 04:19:50;;;;;;;53.17;32.85;;;21.10;99.90;;;;;;5073610;28;20367;-79
2023/08/19 04:22:16;;;;;;;50.92;33.72;;;;;;;;;;5084206;28;20050;-78
2023/08/19 04:24:43;;;;;;;57.25;34.72;;;20.10;99.90;;;;;;5066198;28;20074;-79
2023/08/19 04:27:08;;;;;;;50.55;33.75;;;19.00;99.90;;;;;;5076329;28;20483;-79
2023/08/19 04:29:34;;;;;;;51.55;33.38;;;20.40;99.90;;;;;;5073377;28;20032;-78
2023/08/19 04:32:01;;;;;;;52.40;34.13;;;19.90;99.90;;;;;;5089255;28;20032;-79
2023/08/19 04:34:27;;;;;;;50.15;33.13;;;20.40;99.90;;;;;;5062455;28;20498;-78
2023/08/19 04:36:53;;;;;;;50.55;34.63;;;;;;;;;;5062175;28;20044;-79
2023/08/19 04:39:20;;;;;;;49.65;33.35;;;21.20;99.90;;;;;;5094070;28;20063;-73
2023/08/19 04:41:47;;;;;;;50.40;32.80;;;;;;;;;;5046687;28;20051;-73
2023/08/19 04:44:12;;;;;;;47.78;32.00;;;21.10;99.90;;;;;;5092489;28;20036;-73
2023/08/19 04:46:38;;;;;;;45.60;32.00;;;;;;;;;;5088520;28;20051;-72
2023/08/19 04:49:05;;;;;;;52.15;31.90;;;20.30;99.90;;;;;;5062872;28;20047;-73
2023/08/19 04:51:32;;;;;;;47.15;32.13;;;19.20;99.90;;;;;;5079494;28;20387;-73
2023/08/19 04:53:58;;;;;;;45.25;30.80;;;21.00;99.90;;;;;;5080049;28;20040;-79
2023/08/19 04:56:24;;;;;;;49.40;32.33;;;;;;;;;;5096462;28;20184;-78
2023/08/19 04:58:50;;;;;;;49.17;31.13;;;19.60;99.90;;;;;;5096316;28;20104;-79
2023/08/19 05:01:16;;;;;;;46.00;30.95;;;20.70;99.90;;;;;;5083123;28;20044;-79
2023/08/19 05:03:42;;;;;;;48.72;32.03;;;;;;;;;;5065200;28;20040;-78
2023/08/19 05:06:07;;;;;;;44.53;32.30;;;20.60;99.90;;;;;;5090984;28;20502;-79
2023/08/19 05:08:33;;;;;;;46.95;30.73;;;;;;;;;;5043388;28;20032;-79
2023/08/19 05:11:00;;;;;;;46.13;31.58;;;;;;;;;;5084675;28;20387;-79
2023/08/19 05:13:26;;;;;;;45.65;30.48;;;;;;;;;;5088423;28;20043;-79
2023/08/19 05:15:51;;;;;;;42.72;29.90;;;20.50;99.90;;;;;;5081226;28;20081;-79
2023/08/19 05:18:17;;;;;;;50.75;30.35;;;;;;;;;;5087148;28;20391;-79
2023/08/19 05:20:44;;;;;;;47.83;30.05;;;;;;;;;;5091499;28;20040;-79
2023/08/19 05:23:09;;;;;;;51.47;31.35;;;21.40;99.90;;;;;;5079614;28;20456;-78
2023/08/19 05:25:35;;;;;;;43.25;28.83;;;;;;;;;;5061469;28;20043;-78
2023/08/19 05:28:02;;;;;;;48.10;32.33;;;21.30;99.90;;;;;;5085393;28;20067;-78
2023/08/19 05:30:27;;;;;;;48.13;31.20;;;19.50;99.90;;;;;;5096196;28;20107;-78
2023/08/19 05:32:53;;;;;;;48.97;30.42;;;21.10;99.90;;;;;;5063079;28;20108;-78
2023/08/19 05:35:19;;;;;;;48.13;31.30;;;;;;;;;;5093119;28;20031;-73
2023/08/19 05:37:45;;;;;;;49.70;30.40;;;20.10;99.90;;;;;;5064265;28;20039;-72
2023/08/19 05:40:11;;;;;;;47.47;29.85;;;;;;;;;;5066132;28;20036;-81
2023/08/19 05:42:37;;;;;;;46.47;31.20;;;;;;;;;;5067483;28;20154;-72
2023/08/19 05:45:03;;;;;;;44.17;29.48;;;;;;;;;;5077555;28;20529;-72
2023/08/19 05:47:29;;;;;;;48.38;31.55;;;;;;;;;;5076204;28;20097;-72
2023/08/19 05:49:55;;;;;;;45.80;30.17;;;;;;;;;;5093826;28;20515;-75
2023/08/19 05:52:21;;;;;;;47.58;29.30;;;21.10;99.90;;;;;;5091119;28;20407;-73
2023/08/19 05:54:47;;;;;;;47.50;31.08;;;;;;;;;;5063692;28;20061;-73
2023/08/19 05:57:13;;;;;;;48.85;29.75;;;;;;;;;;5062973;28;20133;-78
2023/08/19 05:59:39;;;;;;;47.72;30.65;;;;;;;;;;5082049;28;20069;-71
2023/08/19 06:02:05;;;;;;;48.53;30.33;;;21.10;99.90;;;;;;5095736;28;20047;-82
2023/08/19 06:04:31;;;;;;;53.17;31.42;;;20.80;99.90;;;;;;5079924;28;20035;-78
2023/08/19 06:06:57;;;;;;;51.63;30.58;;;;;;;;;;5097265;28;20036;-78
2023/08/19 06:09:23;;;;;;;49.17;31.02;;;;;;;;;;5092352;28;20038;-78
2023/08/19 06:11:51;;;;;;;41.45;29.23;;;21.30;99.90;;;;;;5060010;28;20047;-77
2023/08/19 06:14:18;;;;;;;51.65;30.67;;;;;;;;;;5075575;28;20048;-70
2023/08/19 06:16:44;;;;;;;46.60;29.98;;;21.40;99.90;;;;;;5111417;27;20050;-77
2023/08/19 06:19:10;;;;;;;49.33;30.38;;;20.00;99.90;;;;;;5089133;28;20040;-72
2023/08/19 06:21:36;;;;;;;52.47;30.00;;;;;;;;;;5087377;28;20045;-72
2023/08/19 06:24:02;;;;;;;51.03;30.15;;;21.70;99.90;;;;;;5083548;28;20078;-73
2023/08/19 06:26:28;;;;;;;48.80;29.83;;;21.80;99.90;;;;;;5060246;28;20428;-73
2023/08/19 06:28:54;;;;;;;44.97;28.00;;;20.50;99.90;;;;;;5060060;28;20122;-73
2023/08/19 06:31:20;;;;;;;43.95;27.95;;;21.80;99.90;;;;;;5076599;28;20046;-76
2023/08/19 06:33:46;;;;;;;45.20;29.42;;;20.70;99.90;;;;;;5077890;28;20483;-77
2023/08/19 06:36:16;;;;;;;44.58;28.27;;;22.00;99.90;;;;;;5084006;28;20040;-77
2023/08/19 06:38:49;;;;;;;42.20;28.55;;;21.10;99.90;;;;;;5084290;28;20032;-76
2023/08/19 06:41:17;;;;;;;43.15;26.60;;;21.00;99.90;;;;;;5074735;28;20036;-77
2023/08/19 06:43:43;;;;;;;45.95;28.88;;;21.80;99.90;;;;;;5074651;28;20101;-76
2023/08/19 06:46:10;;;;;;;42.08;27.42;;;21.90;99.90;;;;;;5076014;28;20043;-77
2023/08/19 06:48:36;;;;;;;40.90;26.15;;;;;;;;;;5075150;28;20083;-77
2023/08/19 06:51:03;;;;;;;42.92;27.75;;;22.00;99.90;;;;;;5075749;28;20071;-77
2023/08/19 06:53:29;;;;;;;40.78;26.60;;;20.60;99.90;;;;;;5059418;28;20051;-72
2023/08/19 06:56:08;;;;;;;41.85;25.77;;;21.30;99.90;;;;;;5076021;28;20048;-72
2023/08/19 06:58:49;;;;;;;46.20;28.83;;;21.00;99.90;;;;;;5075679;28;20122;-72
2023/08/19 07:01:20;;;;;;;44.33;26.80;;;21.40;99.90;;;;;;5075749;28;20087;-72
2023/08/19 07:03:47;;;;;;;43.10;27.38;;;22.10;99.90;;;;;;5075498;28;20488;-72
2023/08/19 07:06:17;;;;;;;49.67;27.63;;;21.50;99.90;;;;;;5058935;28;20072;-73
2023/08/19 07:08:44;;;;;;;45.55;28.88;;;21.60;99.90;;;;;;5075484;28;20114;-73
2023/08/19 07:11:10;;;;;;;44.13;25.80;;;22.10;99.90;;;;;;5075527;28;20043;-72
2023/08/19 07:13:36;;;;;;;41.95;27.23;;;21.40;99.90;;;;;;5075724;28;20048;-72
2023/08/19 07:16:03;;;;;;;42.63;25.13;;;20.70;99.90;;;;;;5075383;28;20101;-73
2023/08/19 07:18:37;;;;;;;40.13;26.02;;;21.50;99.90;;;;;;5075395;28;20060;-73
2023/08/19 07:21:04;;;;;;;39.15;25.60;;;21.50;99.90;;;;;;5075346;28;20543;-72
2023/08/19 07:23:30;;;;;;;41.78;25.75;;;21.00;99.90;;;;;;5075387;28;20047;-72
2023/08/19 07:25:58;;;;;;;41.50;25.42;;;21.30;99.90;;;;;;5075268;28;20147;-72
2023/08/19 07:28:24;;;;;;;38.20;25.02;;;21.80;99.90;;;;;;5075282;28;20127;-73
2023/08/19 07:30:51;;;;;;;39.50;24.48;;;22.20;99.90;;;;;;5075165;28;20044;-73
2023/08/19 07:33:17;;;;;;;44.33;24.73;;;22.40;99.90;;;;;;5075466;28;20438;-73
2023/08/19 07:35:44;;;;;;;39.08;24.48;;;21.00;99.90;;;;;;5058499;28;20134;-73
2023/08/19 07:38:10;;;;;;;40.72;25.25;;;21.40;99.90;;;;;;5058509;28;20040;-73
2023/08/19 07:40:36;;;;;;;38.03;24.67;;;;;;;;;;5075083;28;20046;-73
2023/08/19 07:43:02;;;;;;;39.15;24.15;;;22.20;99.90;;;;;;5075409;28;20075;-77
2023/08/19 07:45:28;;;;;;;38.95;23.45;;;22.50;99.90;;;;;;5075170;28;20505;-77
2023/08/19 07:47:54;;;;;;;40.38;23.55;;;22.70;99.90;;;;;;5075260;28;20140;-77
2023/08/19 07:50:20;;;;;;;38.50;23.33;;;;;;;;;;5074895;28;20466;-77
2023/08/19 07:52:46;;;;;;;38.47;23.58;;;22.20;99.90;;;;;;5058476;28;20497;-77
2023/08/19 07:55:12;;;;;;;39.28;23.35;;;;;;;;;;5041674;28;20055;-77
2023/08/19 07:57:38;;;;;;;40.28;23.50;;;;;;;;;;5075132;28;20040;-77
2023/08/19 08:00:04;;;;;;;35.80;21.55;;;;;;;;;;5075225;28;20036;-77
2023/08/19 08:02:30;;;;;;;34.85;22.48;;;22.90;99.90;;;;;;5058189;28;20036;-77
2023/08/19 08:04:56;;;;;;;37.70;22.25;;;;;;;;;;5074824;28;20048;-77
2023/08/19 08:07:23;;;;;;;43.97;21.77;;;22.80;99.90;;;;;;5074365;28;20178;-77
2023/08/19 08:09:48;;;;;;;34.58;21.38;;;22.20;99.90;;;;;;5075001;28;20044;-77
2023/08/19 08:12:14;;;;;;;35.05;20.95;;;22.50;99.90;;;;;;5074837;28;20613;-77
2023/08/19 08:14:40;;;;;;;37.85;22.48;;;;;;;;;;5057974;28;20376;-77
2023/08/19 08:17:06;;;;;;;40.17;22.20;;;22.00;99.90;;;;;;5058002;28;20044;-73
2023/08/19 08:19:32;;;;;;;32.08;21.13;;;;;;;;;;5074951;28;20130;-73
2023/08/19 08:21:58;;;;;;;31.38;20.48;;;23.40;99.90;;;;;;5074674;28;20036;-73
2023/08/19 08:24:24;;;;;;;36.17;21.45;;;21.90;99.90;;;;;;5074688;28;20040;-73
2023/08/19 08:26:50;;;;;;;33.83;21.23;;;22.70;99.90;;;;;;5074830;28;20040;-73
2023/08/19 08:29:16;;;;;;;35.05;21.55;;;23.40;99.90;;;;;;5058096;28;20040;-73
2023/08/19 08:31:42;;;;;;;35.30;21.92;;;22.00;99.90;;;;;;5074784;28;20522;-73
2023/08/19 08:34:08;;;;;;;37.67;22.35;;;23.50;99.90;;;;;;5074482;28;20123;-73
2023/08/19 08:36:34;;;;;;;37.13;22.80;;;;;;;;;;5074701;28;20127;-73
2023/08/19 08:39:00;;;;;;;30.70;20.65;;;22.00;99.90;;;;;;5074674;28;20051;-73
2023/08/19 08:41:26;;;;;;;34.45;20.63;;;23.10;99.90;;;;;;5041144;28;20040;-73
2023/08/19 08:43:54;;;;;;;33.35;20.65;;;22.70;99.90;;;;;;5074319;28;20044;-73
2023/08/19 08:46:22;;;;;;;39.50;21.70;;;23.50;99.90;;;;;;5074268;28;20050;-73
2023/08/19 08:48:50;;;;;;;36.50;21.45;;;23.40;99.90;;;;;;5074263;28;20545;-73
2023/08/19 08:51:17;;;;;;;33.05;22.48;;;22.00;99.90;;;;;;5074412;28;20044;-73
2023/08/19 08:53:43;;;;;;;36.08;21.23;;;22.70;99.90;;;;;;5074446;28;20044;-77
2023/08/19 08:56:09;;;;;;;32.25;22.90;;;23.00;99.90;;;;;;5074627;28;20044;-77
2023/08/19 08:58:35;;;;;;;32.20;22.38;;;21.70;99.90;;;;;;5074195;28;20181;-77
2023/08/19 09:01:03;;;;;;;38.45;21.80;;;22.50;99.90;;;;;;5057464;28;20080;-77
2023/08/19 09:03:32;;;;;;;36.90;23.10;;;22.00;99.90;;;;;;5074320;28;20036;-77
2023/08/19 09:06:07;;;;;;;35.75;22.77;;;21.80;99.90;;;;;;5088793;28;20141;-77
2023/08/19 09:08:48;;;;;;;35.40;21.65;;;22.00;99.90;;;;;;5094503;28;20042;-73
2023/08/19 09:11:22;;;;;;;41.03;22.70;;;22.80;99.90;;;;;;5094491;28;20391;-73
2023/08/19 09:13:54;;;;;;;34.65;22.35;;;23.60;99.90;;;;;;5078067;28;20408;-73
2023/08/19 09:16:20;;;;;;;35.55;23.30;;;22.50;99.90;;;;;;5094395;28;20055;-73
2023/08/19 09:18:47;;;;;;;39.03;22.90;;;23.10;99.90;;;;;;5095210;28;20048;-73
2023/08/19 09:21:13;;;;;;;40.33;23.52;;;;;;;;;;5098147;28;20036;-73
2023/08/19 09:23:40;;;;;;;34.30;23.95;;;23.40;99.90;;;;;;5098004;28;20048;-73
2023/08/19 09:26:09;;;;;;;34.35;22.92;;;23.10;99.90;;;;;;5097988;28;20054;-73
2023/08/19 09:28:35;;;;;;;37.33;22.65;;;;;;;;;;5116039;28;20039;-73
2023/08/19 09:31:01;;;;;;;37.85;21.67;;;23.70;99.90;;;;;;5098071;28;20147;-73
2023/08/19 09:33:27;;;;;;;33.20;21.20;;;;;;;;;;5098206;28;20555;-73
2023/08/19 09:35:57;;;;;;;39.22;22.02;;;23.90;99.90;;;;;;5097553;28;20075;-73
2023/08/19 09:38:24;;;;;;;38.95;23.17;;;22.50;99.90;;;;;;5097619;28;20082;-73
2023/08/19 09:41:01;;;;;;;36.65;22.25;;;24.00;99.90;;;;;;5097423;28;20036;-74
2023/08/19 09:43:27;;;;;;;33.25;21.95;;;;;;;;;;5080578;28;20112;-73
2023/08/19 09:46:00;;;;;;;36.15;22.95;;;23.50;99.90;;;;;;5097542;28;20050;-72
2023/08/19 09:48:26;;;;;;;35.97;24.25;;;23.40;99.90;;;;;;5064025;28;20390;-72
2023/08/19 09:50:53;;;;;;;34.95;22.98;;;;;;;;;;5077947;28;20147;-72
2023/08/19 09:53:19;;;;;;;41.83;24.30;;;22.70;99.90;;;;;;5073718;28;20102;-73
2023/08/19 09:55:49;;;;;;;36.33;22.70;;;23.20;99.90;;;;;;5057036;28;20048;-72
2023/08/19 09:58:15;;;;;;;39.08;25.17;;;24.50;99.90;;;;;;5073691;28;20079;-72
2023/08/19 10:00:42;;;;;;;36.25;22.52;;;24.00;99.90;;;;;;5073555;28;20127;-72
2023/08/19 10:03:08;;;;;;;34.72;24.33;;;23.30;99.90;;;;;;5073385;28;20488;-72
2023/08/19 10:05:46;;;;;;;29.55;22.45;;;23.90;99.90;;;;;;5073963;28;20032;-72
2023/08/19 10:08:22;;;;;;;36.55;22.80;;;24.00;99.90;;;;;;5056731;28;20071;-72
2023/08/19 10:10:48;;;;;;;41.85;24.30;;;;;;;;;;5073434;28;20431;-72
2023/08/19 10:13:16;;;;;;;40.20;25.42;;;24.60;99.90;;;;;;5056953;28;20040;-73
2023/08/19 10:15:43;;;;;;;34.70;22.80;;;23.90;99.90;;;;;;5073147;28;20431;-77
2023/08/19 10:18:14;;;;;;;39.10;23.50;;;23.50;99.90;;;;;;5073201;28;20404;-77
2023/08/19 10:20:42;;;;;;;41.40;23.45;;;24.40;99.90;;;;;;5073294;28;20143;-77
2023/08/19 10:23:10;;;;;;;40.90;24.52;;;23.80;99.90;;;;;;5056686;28;20052;-77
2023/08/19 10:25:36;;;;;;;41.35;25.15;;;24.30;99.90;;;;;;5073385;28;20044;-77
2023/08/19 10:28:09;;;;;;;45.00;26.70;;;24.20;99.90;;;;;;5073233;28;20036;-72
2023/08/19 10:30:35;;;;;;;40.03;28.48;;;;;;;;;;5072482;28;20036;-72
2023/08/19 10:33:22;;;;;;;42.10;27.65;;;24.20;99.90;;;;;;5073167;28;20366;-72
2023/08/19 10:35:59;;;;;;;53.28;27.75;;;24.40;99.90;;;;;;5055594;28;20052;-72
2023/08/19 10:38:24;;;;;;;48.33;28.42;;;23.90;99.90;;;;;;5073141;28;20044;-72
2023/08/19 10:41:02;;;;;;;45.05;29.75;;;24.50;99.90;;;;;;5056048;28;20040;-73
2023/08/19 10:43:27;;;;;;;44.78;29.25;;;24.30;99.90;;;;;;5056347;28;20123;-72
2023/08/19 10:45:58;;;;;;;46.92;29.77;;;23.80;99.90;;;;;;5056206;28;20147;-73
2023/08/19 10:48:33;;;;;;;49.88;31.83;;;25.20;99.90;;;;;;5072945;28;20421;-73
2023/08/19 10:50:58;;;;;;;56.15;34.80;;;25.00;99.90;;;;;;5072374;28;20131;-73
2023/08/19 10:53:24;;;;;;;60.60;35.67;;;24.60;99.90;;;;;;5072404;28;20119;-73
2023/08/19 10:55:51;;;;;;;55.67;35.40;;;;;;;;;;5072532;28;20070;-73
2023/08/19 10:58:17;;;;;;;58.17;37.08;;;24.70;99.90;;;;;;5072449;28;20090;-73
2023/08/19 11:00:44;;;;;;;64.78;40.47;;;24.80;99.90;;;;;;5055721;28;20119;-73
2023/08/19 11:03:11;;;;;;;68.38;39.38;;;24.30;99.90;;;;;;5072543;28;20040;-73
2023/08/19 11:05:37;;;;;;;80.45;44.20;;;25.30;99.90;;;;;;5072215;28;20052;-72
2023/08/19 11:08:06;;;;;;;80.03;45.78;;;24.80;99.90;;;;;;5072291;28;20036;-72
2023/08/19 11:10:33;;;;;;;94.53;50.92;;;24.80;99.90;;;;;;5072113;28;20488;-72
2023/08/19 11:13:00;;;;;;;117.07;58.13;;;24.80;99.90;;;;;;5072358;28;20083;-72
2023/08/19 11:15:26;;;;;;;110.82;54.67;;;;;;;;;;5072444;28;20106;-73
2023/08/19 11:17:51;;;;;;;97.90;50.90;;;24.00;99.90;;;;;;5072224;28;20492;-76
2023/08/19 11:20:17;;;;;;;99.03;49.58;;;25.00;99.90;;;;;;5055688;28;20044;-77
2023/08/19 11:22:48;;;;;;;106.72;55.80;;;24.90;99.90;;;;;;5039053;28;20045;-76
2023/08/19 11:25:15;;;;;;;94.63;51.47;;;23.80;99.90;;;;;;5071972;28;20530;-76
2023/08/19 11:27:41;;;;;;;88.88;48.55;;;25.20;99.90;;;;;;5072258;28;20434;-76
2023/08/19 11:30:11;;;;;;;90.88;47.50;;;25.20;99.90;;;;;;5072151;28;20492;-76
2023/08/19 11:32:38;;;;;;;82.82;43.92;;;;;;;;;;5055197;28;20076;-76
2023/08/19 11:35:04;;;;;;;71.82;38.90;;;24.90;99.90;;;;;;5071677;28;20044;-76
2023/08/19 11:37:30;;;;;;;69.00;37.78;;;24.90;99.90;;;;;;5072021;28;20044;-76
2023/08/19 11:39:56;;;;;;;56.67;32.85;;;25.00;99.90;;;;;;5055468;28;20036;-76
2023/08/19 11:42:25;;;;;;;48.67;26.38;;;24.20;99.90;;;;;;5071219;28;20130;-76
2023/08/19 11:44:51;;;;;;;45.65;25.70;;;;;;;;;;5055153;28;20049;-77
2023/08/19 11:47:17;;;;;;;51.63;27.38;;;;;;;;;;5071916;28;20189;-76
2023/08/19 11:49:43;;;;;;;50.88;27.13;;;23.60;99.90;;;;;;5071547;28;20463;-76
2023/08/19 11:52:09;;;;;;;51.35;28.42;;;;;;;;;;5071952;28;20041;-75
2023/08/19 11:54:35;;;;;;;48.25;27.10;;;24.90;99.90;;;;;;5071939;28;20396;-75
2023/08/19 11:57:02;;;;;;;42.70;24.48;;;23.50;99.90;;;;;;5071869;28;20036;-76
2023/08/19 11:59:33;;;;;;;43.53;24.33;;;24.30;99.90;;;;;;5071573;28;20053;-75
2023/08/19 12:02:03;;;;;;;37.53;23.08;;;24.10;99.90;;;;;;5054836;28;20480;-75
2023/08/19 12:04:30;;;;;;;41.03;21.05;;;;;;;;;;5071587;28;20041;-76
2023/08/19 12:06:55;;;;;;;37.78;20.33;;;25.20;99.90;;;;;;5071580;28;20119;-75
2023/08/19 12:09:31;;;;;;;32.10;19.38;;;24.80;99.90;;;;;;5071541;28;20079;-76
2023/08/19 12:12:08;;;;;;;34.80;18.27;;;25.00;99.90;;;;;;5071647;28;20086;-76
2023/08/19 12:14:34;;;;;;;28.17;15.45;;;;;;;;;;5071261;28;20407;-76
2023/08/19 12:17:00;;;;;;;31.05;16.60;;;;;;;;;;5071386;28;20127;-76
2023/08/19 12:19:26;;;;;;;24.30;14.52;;;;;;;;;;5054690;28;20052;-76
2023/08/19 12:21:52;;;;;;;27.83;12.48;;;;;;;;;;5071588;28;20435;-76
2023/08/19 12:24:18;;;;;;;21.92;12.23;;;23.90;99.90;;;;;;5054813;28;20032;-76
2023/08/19 12:26:44;;;;;;;24.33;12.07;;;;;;;;;;5054591;28;20475;-76
2023/08/19 12:29:10;;;;;;;22.60;11.23;;;24.60;99.90;;;;;;5055173;28;20388;-76
2023/08/19 12:31:35;;;;;;;20.90;10.93;;;23.90;99.90;;;;;;5054647;28;20037;-76
2023/08/19 12:34:02;;;;;;;17.10;9.02;;;;;;;;;;5071258;28;20044;-76
2023/08/19 12:36:28;;;;;;;16.98;9.43;;;;;;;;;;5071455;28;20047;-76
2023/08/19 12:38:54;;;;;;;19.35;8.75;;;24.70;99.90;;;;;;5055020;28;20135;-76
2023/08/19 12:41:20;;;;;;;18.85;9.27;;;;;;;;;;5054280;28;20544;-71
2023/08/19 12:43:46;;;;;;;15.98;8.60;;;;;;;;;;5071187;28;20045;-72
2023/08/19 12:46:12;;;;;;;16.50;7.78;;;24.10;99.90;;;;;;5071362;28;20040;-72
2023/08/19 12:48:38;;;;;;;18.08;7.55;;;24.20;99.90;;;;;;5071181;28;20040;-71
2023/08/19 12:51:04;;;;;;;18.38;7.55;;;23.10;99.90;;;;;;5054406;28;20049;-71
2023/08/19 12:53:30;;;;;;;17.10;7.28;;;23.30;99.90;;;;;;5072909;28;20037;-71